createdAt,value
2023-03-11T00:00:23.037Z,0.21
2023-03-11T00:03:12.592Z,0.16
2023-03-11T00:05:42.321Z,0.15
2023-03-11T00:08:13.813Z,0.14
2023-03-11T00:10:43.271Z,0.19
2023-03-11T00:13:12.902Z,0.19
2023-03-11T00:15:41.335Z,0.23
2023-03-11T00:18:09.279Z,0.25
2023-03-11T00:20:38.833Z,0.29
2023-03-11T00:23:07.597Z,0.25
2023-03-11T00:25:36.778Z,0.22
2023-03-11T00:28:07.244Z,0.21
2023-03-11T00:30:36.251Z,0.18
2023-03-11T00:33:04.497Z,0.19
2023-03-11T00:35:34.693Z,0.24
2023-03-11T00:38:05.178Z,0.23
2023-03-11T00:40:34.041Z,0.24
2023-03-11T00:43:03.876Z,0.22
2023-03-11T00:45:31.921Z,0.25
2023-03-11T00:47:59.962Z,0.26
2023-03-11T00:50:30.081Z,0.29
2023-03-11T00:52:58.260Z,0.27
2023-03-11T00:55:28.644Z,0.25
2023-03-11T00:58:03.359Z,0.24
2023-03-11T01:00:38.339Z,0.18
2023-03-11T01:03:06.431Z,0.16
2023-03-11T01:05:34.394Z,0.19
2023-03-11T01:08:03.542Z,0.24
2023-03-11T01:10:32.020Z,0.22
2023-03-11T01:13:00.093Z,0.22
2023-03-11T01:15:31.673Z,0.22
2023-03-11T01:18:00.699Z,0.23
2023-03-11T01:20:28.823Z,0.27
2023-03-11T01:22:57.133Z,0.28
2023-03-11T01:25:25.377Z,0.28
2023-03-11T01:27:53.458Z,0.33
2023-03-11T01:30:23.149Z,0.31
2023-03-11T01:32:52.634Z,0.23
2023-03-11T01:35:21.870Z,0.24
2023-03-11T01:37:50.246Z,0.22
2023-03-11T01:40:26.640Z,0.22
2023-03-11T01:42:54.816Z,0.23
2023-03-11T01:45:28.959Z,0.22
2023-03-11T01:47:57.125Z,0.24
2023-03-11T01:50:25.807Z,0.19
2023-03-11T01:52:53.874Z,0.20
2023-03-11T01:55:21.882Z,0.21
2023-03-11T01:57:49.961Z,0.17
2023-03-11T02:00:18.363Z,0.21
2023-03-11T02:02:56.049Z,0.19
2023-03-11T02:05:24.640Z,0.17
2023-03-11T02:07:56.095Z,0.20
2023-03-11T02:10:25.893Z,0.19
2023-03-11T02:12:55.429Z,0.21
2023-03-11T02:15:24.546Z,0.18
2023-03-11T02:17:53.724Z,0.14
2023-03-11T02:20:46.849Z,0.17
2023-03-11T02:23:15.328Z,0.18
2023-03-11T02:25:58.351Z,0.18
2023-03-11T02:28:26.274Z,0.18
2023-03-11T02:30:54.377Z,0.14
2023-03-11T02:33:24.971Z,0.09
2023-03-11T02:35:53.094Z,0.11
2023-03-11T02:38:21.119Z,0.17
2023-03-11T02:40:49.938Z,0.18
2023-03-11T02:43:23.498Z,0.23
2023-03-11T02:45:51.860Z,0.19
2023-03-11T02:48:20.908Z,0.21
2023-03-11T02:50:48.918Z,0.18
2023-03-11T02:53:17.411Z,0.16
2023-03-11T02:55:45.551Z,0.17
2023-03-11T02:58:13.525Z,0.20
2023-03-11T03:00:41.556Z,0.21
2023-03-11T03:03:10.821Z,0.20
2023-03-11T03:05:40.063Z,0.21
2023-03-11T03:08:08.120Z,0.21
2023-03-11T03:10:36.093Z,0.20
2023-03-11T03:13:04.412Z,0.18
2023-03-11T03:15:32.537Z,0.22
2023-03-11T03:18:00.932Z,0.21
2023-03-11T03:20:28.973Z,0.22
2023-03-11T03:22:59.051Z,0.27
2023-03-11T03:25:29.402Z,0.25
2023-03-11T03:27:58.063Z,0.21
2023-03-11T03:30:26.987Z,0.15
2023-03-11T03:32:56.256Z,0.13
2023-03-11T03:35:24.386Z,0.15
2023-03-11T03:38:03.039Z,0.17
2023-03-11T03:40:31.201Z,0.19
2023-03-11T03:43:00.126Z,0.15
2023-03-11T03:45:29.161Z,0.15
2023-03-11T03:47:57.341Z,0.15
2023-03-11T03:50:26.197Z,0.15
2023-03-11T03:52:55.383Z,0.13
2023-03-11T03:55:23.449Z,0.12
2023-03-11T03:57:52.091Z,0.12
2023-03-11T04:00:21.185Z,0.10
2023-03-11T04:02:51.532Z,0.11
2023-03-11T04:05:27.133Z,0.08
2023-03-11T04:07:55.534Z,0.08
2023-03-11T04:10:23.586Z,0.07
2023-03-11T04:12:52.093Z,0.08
2023-03-11T04:15:20.270Z,0.09
2023-03-11T04:17:48.414Z,0.12
2023-03-11T04:20:16.815Z,0.10
2023-03-11T04:22:46.191Z,0.10
2023-03-11T04:25:14.393Z,0.11
2023-03-11T04:27:46.121Z,0.11
2023-03-11T04:30:14.641Z,0.09
2023-03-11T04:32:43.729Z,0.09
2023-03-11T04:35:12.344Z,0.12
2023-03-11T04:37:40.693Z,0.11
2023-03-11T04:40:11.053Z,0.10
2023-03-11T04:42:39.254Z,0.09
2023-03-11T04:45:08.182Z,0.01
2023-03-11T04:47:36.489Z,-0.00
2023-03-11T04:50:05.466Z,-0.02
2023-03-11T04:52:33.686Z,-0.06
2023-03-11T04:55:01.620Z,-0.09
2023-03-11T04:57:29.710Z,-0.11
2023-03-11T04:59:58.134Z,-0.09
2023-03-11T05:02:26.183Z,-0.09
2023-03-11T05:04:57.903Z,-0.10
2023-03-11T05:07:25.957Z,-0.11
2023-03-11T05:09:54.101Z,-0.15
2023-03-11T05:12:22.196Z,-0.14
2023-03-11T05:14:52.258Z,-0.15
2023-03-11T05:17:20.752Z,-0.14
2023-03-11T05:19:49.389Z,-0.17
2023-03-11T05:22:21.662Z,-0.17
2023-03-11T05:24:50.082Z,-0.17
2023-03-11T05:27:19.955Z,-0.14
2023-03-11T05:29:50.287Z,-0.15
2023-03-11T05:32:19.629Z,-0.15
2023-03-11T05:34:48.495Z,-0.16
2023-03-11T05:37:17.665Z,-0.11
2023-03-11T05:39:46.476Z,-0.11
2023-03-11T05:42:14.618Z,-0.10
2023-03-11T05:44:43.063Z,-0.09
2023-03-11T05:47:11.225Z,-0.07
2023-03-11T05:49:39.345Z,-0.08
2023-03-11T05:52:07.438Z,-0.06
2023-03-11T05:54:36.516Z,-0.10
2023-03-11T05:57:04.835Z,-0.06
2023-03-11T05:59:35.548Z,-0.03
2023-03-11T06:02:05.420Z,-0.04
2023-03-11T06:04:33.646Z,-0.02
2023-03-11T06:07:02.383Z,-0.02
2023-03-11T06:09:32.457Z,0.03
2023-03-11T06:12:00.634Z,0.07
2023-03-11T06:14:34.383Z,0.02
2023-03-11T06:17:02.377Z,0.06
2023-03-11T06:19:30.338Z,0.07
2023-03-11T06:21:58.409Z,0.09
2023-03-11T06:24:26.372Z,0.08
2023-03-11T06:26:54.568Z,0.03
2023-03-11T06:29:26.686Z,0.03
2023-03-11T06:31:55.457Z,-0.00
2023-03-11T06:34:24.129Z,0.01
2023-03-11T06:36:52.740Z,0.00
2023-03-11T06:39:22.809Z,0.02
2023-03-11T06:41:51.313Z,-0.00
2023-03-11T06:44:19.825Z,-0.04
2023-03-11T06:46:47.927Z,-0.01
2023-03-11T06:49:16.214Z,0.02
2023-03-11T06:51:44.401Z,0.01
2023-03-11T06:54:12.807Z,0.02
2023-03-11T06:56:40.822Z,0.02
2023-03-11T06:59:09.421Z,0.06
2023-03-11T07:01:37.545Z,0.12
2023-03-11T07:04:07.339Z,0.13
2023-03-11T07:06:36.294Z,0.20
2023-03-11T07:09:08.471Z,0.21
2023-03-11T07:11:39.301Z,0.25
2023-03-11T07:14:10.722Z,0.24
2023-03-11T07:16:41.959Z,0.24
2023-03-11T07:19:15.731Z,0.21
2023-03-11T07:21:43.669Z,0.20
2023-03-11T07:24:12.729Z,0.19
2023-03-11T07:26:42.074Z,0.23
2023-03-11T07:29:11.979Z,0.22
2023-03-11T07:31:40.193Z,0.15
2023-03-11T07:34:11.625Z,0.17
2023-03-11T07:36:40.455Z,0.11
2023-03-11T07:39:08.516Z,0.05
2023-03-11T07:41:36.724Z,0.08
2023-03-11T07:44:05.071Z,0.00
2023-03-11T07:46:33.295Z,-0.09
2023-03-11T07:49:02.381Z,-0.12
2023-03-11T07:51:32.356Z,-0.16
2023-03-11T07:54:00.521Z,-0.24
2023-03-11T07:56:30.577Z,-0.28
2023-03-11T07:58:59.357Z,-0.28
2023-03-11T08:01:30.852Z,-0.33
2023-03-11T08:04:01.081Z,-0.32
2023-03-11T08:06:31.439Z,-0.31
2023-03-11T08:09:00.023Z,-0.38
2023-03-11T08:11:28.327Z,-0.35
2023-03-11T08:13:59.083Z,-0.30
2023-03-11T08:16:27.348Z,-0.32
2023-03-11T08:18:55.356Z,-0.31
2023-03-11T08:21:25.205Z,-0.30
2023-03-11T08:23:54.694Z,-0.27
2023-03-11T08:26:22.718Z,-0.19
2023-03-11T08:28:50.765Z,-0.20
2023-03-11T08:31:21.033Z,-0.23
2023-03-11T08:33:50.103Z,-0.22
2023-03-11T08:36:18.924Z,-0.24
2023-03-11T08:38:47.211Z,-0.24
2023-03-11T08:41:15.681Z,-0.28
2023-03-11T08:43:44.705Z,-0.31
2023-03-11T08:46:24.100Z,-0.33
2023-03-11T08:48:53.136Z,-0.33
2023-03-11T08:51:21.529Z,-0.37
2023-03-11T08:53:50.160Z,-0.33
2023-03-11T08:56:18.751Z,-0.38
2023-03-11T08:58:46.984Z,-0.27
2023-03-11T09:01:15.314Z,-0.22
2023-03-11T09:03:43.336Z,-0.22
2023-03-11T09:06:13.916Z,-0.20
2023-03-11T09:08:43.373Z,-0.18
2023-03-11T09:11:16.062Z,-0.12
2023-03-11T09:13:46.552Z,-0.15
2023-03-11T09:16:20.933Z,-0.16
2023-03-11T09:18:48.929Z,-0.15
2023-03-11T09:21:16.886Z,-0.24
2023-03-11T09:23:45.042Z,-0.17
2023-03-11T09:26:13.197Z,-0.14
2023-03-11T09:28:41.674Z,-0.10
2023-03-11T09:31:09.804Z,-0.08
2023-03-11T09:33:39.249Z,-0.05
2023-03-11T09:36:07.872Z,-0.10
2023-03-11T09:38:35.799Z,-0.04
2023-03-11T09:41:47.899Z,0.11
2023-03-11T09:44:46.271Z,0.05
2023-03-11T09:47:41.056Z,0.02
2023-03-11T09:50:20.002Z,0.04
2023-03-11T09:53:11.889Z,-0.02
2023-03-11T09:55:45.140Z,0.10
2023-03-11T09:58:14.365Z,0.08
2023-03-11T10:00:42.543Z,0.08
2023-03-11T10:03:34.580Z,0.05
2023-03-11T10:06:13.359Z,0.12
2023-03-11T10:09:04.230Z,0.19
2023-03-11T10:11:57.218Z,0.39
2023-03-11T10:14:42.940Z,0.64
2023-03-11T10:17:41.124Z,0.95
2023-03-11T10:20:21.995Z,1.11
2023-03-11T10:23:11.101Z,1.32
2023-03-11T10:26:00.271Z,1.55
2023-03-11T10:28:45.274Z,1.43
2023-03-11T10:31:38.360Z,1.38
2023-03-11T10:34:15.724Z,1.42
2023-03-11T10:37:01.981Z,1.28
2023-03-11T10:39:31.528Z,1.08
2023-03-11T10:42:04.267Z,0.98
2023-03-11T10:44:37.564Z,0.86
2023-03-11T10:47:05.979Z,0.98
2023-03-11T10:49:34.009Z,1.23
2023-03-11T10:52:02.056Z,1.26
2023-03-11T10:54:31.937Z,1.21
2023-03-11T10:57:01.750Z,1.09
2023-03-11T10:59:34.109Z,0.93
2023-03-11T11:02:22.514Z,0.94
2023-03-11T11:04:50.480Z,1.00
2023-03-11T11:07:32.585Z,0.96
2023-03-11T11:10:14.097Z,1.11
2023-03-11T11:12:51.071Z,1.03
2023-03-11T11:15:33.048Z,0.93
2023-03-11T11:18:02.822Z,0.79
2023-03-11T11:20:30.945Z,0.73
2023-03-11T11:23:00.900Z,0.67
2023-03-11T11:25:33.788Z,0.61
2023-03-11T11:28:18.708Z,0.71
2023-03-11T11:31:00.425Z,0.86
2023-03-11T11:33:53.119Z,1.02
2023-03-11T11:36:24.376Z,1.38
2023-03-11T11:38:55.626Z,1.49
2023-03-11T11:41:24.565Z,1.41
2023-03-11T11:43:54.135Z,1.56
2023-03-11T11:46:55.392Z,1.52
2023-03-11T11:49:23.560Z,1.68
2023-03-11T11:52:05.409Z,1.81
2023-03-11T11:54:39.125Z,1.93
2023-03-11T11:57:14.962Z,1.96
2023-03-11T11:59:43.556Z,1.98
2023-03-11T12:02:33.873Z,1.86
2023-03-11T12:05:16.690Z,1.97
2023-03-11T12:08:06.934Z,2.02
2023-03-11T12:11:04.743Z,1.91
2023-03-11T12:14:06.284Z,2.09
2023-03-11T12:16:44.669Z,2.05
2023-03-11T12:19:12.581Z,2.02
2023-03-11T12:21:45.794Z,1.71
2023-03-11T12:24:27.978Z,1.54
2023-03-11T12:26:59.269Z,1.42
2023-03-11T12:29:34.133Z,1.41
2023-03-11T12:32:02.300Z,1.35
2023-03-11T12:34:30.314Z,1.38
2023-03-11T12:36:59.831Z,1.27
2023-03-11T12:39:34.147Z,1.32
2023-03-11T12:42:11.322Z,1.39
2023-03-11T12:44:39.882Z,1.50
2023-03-11T12:47:07.765Z,1.65
2023-03-11T12:49:46.501Z,1.75
2023-03-11T12:52:14.418Z,1.86
2023-03-11T12:55:17.449Z,2.00
2023-03-11T12:57:48.389Z,2.24
2023-03-11T13:00:44.870Z,2.29
2023-03-11T13:03:24.789Z,2.14
2023-03-11T13:06:11.583Z,2.13
2023-03-11T13:08:52.667Z,1.99
2023-03-11T13:11:33.182Z,1.95
2023-03-11T13:14:16.487Z,1.95
2023-03-11T13:16:47.476Z,1.82
2023-03-11T13:19:35.387Z,1.76
2023-03-11T13:22:05.466Z,1.98
2023-03-11T13:24:33.321Z,2.06
2023-03-11T13:27:07.276Z,2.27
2023-03-11T13:29:47.765Z,2.43
2023-03-11T13:32:30.960Z,2.60
2023-03-11T13:35:02.030Z,2.68
2023-03-11T13:37:36.742Z,2.55
2023-03-11T13:40:14.171Z,2.60
2023-03-11T13:42:46.944Z,2.54
2023-03-11T13:45:35.800Z,2.44
2023-03-11T13:48:22.659Z,2.19
2023-03-11T13:51:00.909Z,2.00
2023-03-11T13:53:48.225Z,2.10
2023-03-11T13:56:23.273Z,2.01
2023-03-11T13:58:51.235Z,2.07
2023-03-11T14:01:19.205Z,2.04
2023-03-11T14:03:47.764Z,2.06
2023-03-11T14:06:19.479Z,2.11
2023-03-11T14:08:55.289Z,2.07
2023-03-11T14:11:27.787Z,2.10
2023-03-11T14:13:55.694Z,2.07
2023-03-11T14:16:36.415Z,2.13
2023-03-11T14:19:08.919Z,2.14
2023-03-11T14:21:37.053Z,2.11
2023-03-11T14:24:05.232Z,2.34
2023-03-11T14:26:35.192Z,2.47
2023-03-11T14:29:08.996Z,2.49
2023-03-11T14:31:38.516Z,2.51
2023-03-11T14:34:20.396Z,2.48
2023-03-11T14:36:51.116Z,2.37
2023-03-11T14:39:36.354Z,2.48
2023-03-11T14:42:12.514Z,2.61
2023-03-11T14:44:41.540Z,3.04
2023-03-11T14:47:11.402Z,3.15
2023-03-11T14:49:39.685Z,3.46
2023-03-11T14:52:18.932Z,3.29
2023-03-11T14:54:47.018Z,2.95
2023-03-11T14:57:37.931Z,2.74
2023-03-11T15:00:10.153Z,2.46
2023-03-11T15:02:40.505Z,2.19
2023-03-11T15:05:16.720Z,2.07
2023-03-11T15:07:45.238Z,2.09
2023-03-11T15:10:13.618Z,2.14
2023-03-11T15:12:42.796Z,2.18
2023-03-11T15:15:27.036Z,2.11
2023-03-11T15:17:56.650Z,1.89
2023-03-11T15:20:35.548Z,1.79
2023-03-11T15:23:04.977Z,1.71
2023-03-11T15:25:35.207Z,1.70
2023-03-11T15:28:22.274Z,2.10
2023-03-11T15:30:50.255Z,2.26
2023-03-11T15:33:32.821Z,2.08
2023-03-11T15:36:00.954Z,2.02
2023-03-11T15:38:29.108Z,2.01
2023-03-11T15:40:58.693Z,2.23
2023-03-11T15:43:30.898Z,2.21
2023-03-11T15:46:00.368Z,2.23
2023-03-11T15:48:29.984Z,2.22
2023-03-11T15:50:58.870Z,2.03
2023-03-11T15:53:27.687Z,1.79
2023-03-11T15:56:06.950Z,1.89
2023-03-11T15:58:36.715Z,2.04
2023-03-11T16:01:04.866Z,2.19
2023-03-11T16:03:32.962Z,2.24
2023-03-11T16:06:01.044Z,2.29
2023-03-11T16:08:29.094Z,2.42
2023-03-11T16:10:58.182Z,2.39
2023-03-11T16:13:26.211Z,2.09
2023-03-11T16:15:54.343Z,1.72
2023-03-11T16:18:22.335Z,1.52
2023-03-11T16:20:51.107Z,1.33
2023-03-11T16:23:36.185Z,1.17
2023-03-11T16:26:10.613Z,0.94
2023-03-11T16:28:38.792Z,0.82
2023-03-11T16:31:08.857Z,0.68
2023-03-11T16:33:36.941Z,0.55
2023-03-11T16:36:05.444Z,0.42
2023-03-11T16:38:42.139Z,0.30
2023-03-11T16:41:10.169Z,0.17
2023-03-11T16:43:38.076Z,0.08
2023-03-11T16:46:06.070Z,-0.01
2023-03-11T16:48:34.234Z,-0.06
2023-03-11T16:51:02.353Z,-0.09
2023-03-11T16:53:30.341Z,-0.15
2023-03-11T16:55:58.383Z,-0.21
2023-03-11T16:58:26.448Z,-0.26
2023-03-11T17:00:54.498Z,-0.33
2023-03-11T17:03:22.430Z,-0.39
2023-03-11T17:05:50.461Z,-0.45
2023-03-11T17:08:18.581Z,-0.49
2023-03-11T17:10:46.884Z,-0.49
2023-03-11T17:13:17.762Z,-0.51
2023-03-11T17:15:57.491Z,-0.51
2023-03-11T17:18:25.672Z,-0.48
2023-03-11T17:20:53.765Z,-0.41
2023-03-11T17:23:21.709Z,-0.31
2023-03-11T17:25:49.776Z,-0.23
2023-03-11T17:28:17.888Z,-0.15
2023-03-11T17:30:45.907Z,-0.06
2023-03-11T17:33:13.910Z,0.01
2023-03-11T17:35:42.065Z,0.03
2023-03-11T17:38:10.348Z,0.03
2023-03-11T17:40:38.418Z,0.06
2023-03-11T17:43:06.380Z,-0.01
2023-03-11T17:45:34.396Z,-0.10
2023-03-11T17:48:02.419Z,-0.16
2023-03-11T17:50:30.593Z,-0.22
2023-03-11T17:52:58.824Z,-0.28
2023-03-11T17:55:26.757Z,-0.35
2023-03-11T17:57:54.737Z,-0.38
2023-03-11T18:00:23.152Z,-0.41
2023-03-11T18:02:54.155Z,-0.43
2023-03-11T18:05:22.401Z,-0.46
2023-03-11T18:07:50.523Z,-0.51
2023-03-11T18:10:18.621Z,-0.52
2023-03-11T18:12:46.732Z,-0.53
2023-03-11T18:15:19.076Z,-0.57
2023-03-11T18:17:47.270Z,-0.59
2023-03-11T18:20:15.704Z,-0.63
2023-03-11T18:22:46.708Z,-0.66
2023-03-11T18:25:15.982Z,-0.68
2023-03-11T18:27:44.775Z,-0.70
2023-03-11T18:30:13.324Z,-0.73
2023-03-11T18:32:42.154Z,-0.77
2023-03-11T18:35:11.106Z,-0.78
2023-03-11T18:37:39.338Z,-0.80
2023-03-11T18:40:07.951Z,-0.84
2023-03-11T18:42:35.864Z,-0.88
2023-03-11T18:45:04.372Z,-0.90
2023-03-11T18:47:35.556Z,-0.94
2023-03-11T18:50:04.891Z,-0.96
2023-03-11T18:52:33.505Z,-0.97
2023-03-11T18:55:01.649Z,-0.99
2023-03-11T18:57:31.865Z,-1.02
2023-03-11T19:00:00.122Z,-1.05
2023-03-11T19:02:28.303Z,-1.07
2023-03-11T19:04:56.676Z,-1.07
2023-03-11T19:07:24.911Z,-1.03
2023-03-11T19:09:53.616Z,-1.01
2023-03-11T19:12:21.823Z,-1.01
2023-03-11T19:14:51.874Z,-1.01
2023-03-11T19:17:19.924Z,-1.00
2023-03-11T19:19:50.544Z,-0.98
2023-03-11T19:22:18.699Z,-0.98
2023-03-11T19:24:46.681Z,-0.99
2023-03-11T19:27:14.691Z,-1.00
2023-03-11T19:29:42.680Z,-1.00
2023-03-11T19:32:10.715Z,-1.01
2023-03-11T19:34:40.961Z,-0.97
2023-03-11T19:37:08.902Z,-0.98
2023-03-11T19:39:37.380Z,-0.95
2023-03-11T19:42:05.996Z,-0.92
2023-03-11T19:44:34.254Z,-0.93
2023-03-11T19:47:06.459Z,-0.97
2023-03-11T19:49:34.792Z,-0.99
2023-03-11T19:52:02.871Z,-1.02
2023-03-11T19:54:31.026Z,-1.05
2023-03-11T19:57:00.396Z,-1.06
2023-03-11T19:59:28.472Z,-1.09
2023-03-11T20:01:57.060Z,-1.12
2023-03-11T20:04:25.324Z,-1.16
2023-03-11T20:06:53.412Z,-1.20
2023-03-11T20:09:21.644Z,-1.22
2023-03-11T20:11:49.703Z,-1.23
2023-03-11T20:14:17.923Z,-1.27
2023-03-11T20:16:48.229Z,-1.28
2023-03-11T20:19:16.484Z,-1.30
2023-03-11T20:21:45.936Z,-1.32
2023-03-11T20:24:14.603Z,-1.34
2023-03-11T20:26:42.718Z,-1.36
2023-03-11T20:29:10.753Z,-1.35
2023-03-11T20:31:39.570Z,-1.37
2023-03-11T20:34:11.325Z,-1.41
2023-03-11T20:36:40.050Z,-1.47
2023-03-11T20:39:10.462Z,-1.50
2023-03-11T20:41:40.825Z,-1.52
2023-03-11T20:44:09.315Z,-1.53
2023-03-11T20:46:37.423Z,-1.52
2023-03-11T20:49:05.464Z,-1.50
2023-03-11T20:51:33.532Z,-1.51
2023-03-11T20:54:01.887Z,-1.53
2023-03-11T20:56:30.051Z,-1.57
2023-03-11T20:58:59.586Z,-1.59
2023-03-11T21:01:32.271Z,-1.61
2023-03-11T21:04:02.078Z,-1.64
2023-03-11T21:06:35.774Z,-1.65
2023-03-11T21:09:06.617Z,-1.66
2023-03-11T21:11:34.692Z,-1.66
2023-03-11T21:14:02.926Z,-1.68
2023-03-11T21:16:31.158Z,-1.72
2023-03-11T21:19:01.581Z,-1.72
2023-03-11T21:21:30.671Z,-1.70
2023-03-11T21:23:58.651Z,-1.67
2023-03-11T21:26:26.785Z,-1.67
2023-03-11T21:28:55.458Z,-1.67
2023-03-11T21:31:27.068Z,-1.69
2023-03-11T21:33:57.890Z,-1.66
2023-03-11T21:36:27.235Z,-1.59
2023-03-11T21:38:55.945Z,-1.48
2023-03-11T21:41:25.220Z,-1.38
2023-03-11T21:43:54.129Z,-1.28
2023-03-11T21:46:24.837Z,-1.20
2023-03-11T21:48:52.944Z,-1.12
2023-03-11T21:51:21.360Z,-0.99
2023-03-11T21:53:49.750Z,-0.91
2023-03-11T21:56:18.054Z,-0.83
2023-03-11T21:58:46.754Z,-0.84
2023-03-11T22:01:14.950Z,-0.83
2023-03-11T22:03:44.008Z,-0.79
2023-03-11T22:06:12.638Z,-0.70
2023-03-11T22:08:41.755Z,-0.69
2023-03-11T22:11:11.011Z,-0.67
2023-03-11T22:13:38.993Z,-0.62
2023-03-11T22:16:07.289Z,-0.53
2023-03-11T22:18:36.858Z,-0.49
2023-03-11T22:21:05.562Z,-0.43
2023-03-11T22:23:34.534Z,-0.38
2023-03-11T22:26:02.857Z,-0.29
2023-03-11T22:28:30.918Z,-0.23
2023-03-11T22:30:58.990Z,-0.19
2023-03-11T22:33:26.992Z,-0.12
2023-03-11T22:35:56.763Z,-0.08
2023-03-11T22:38:24.816Z,-0.08
2023-03-11T22:40:52.787Z,-0.06
2023-03-11T22:43:20.778Z,0.01
2023-03-11T22:45:48.842Z,0.08
2023-03-11T22:48:16.786Z,0.11
2023-03-11T22:50:44.938Z,0.08
2023-03-11T22:53:13.215Z,0.09
2023-03-11T22:55:44.435Z,0.12
2023-03-11T22:58:12.699Z,0.19
2023-03-11T23:00:40.698Z,0.19
2023-03-11T23:03:09.662Z,0.22
2023-03-11T23:05:42.298Z,0.24
2023-03-11T23:08:17.730Z,0.27
2023-03-11T23:10:46.630Z,0.30
2023-03-11T23:13:14.761Z,0.34
2023-03-11T23:15:44.569Z,0.31
2023-03-11T23:18:12.862Z,0.35
2023-03-11T23:20:41.420Z,0.40
2023-03-11T23:23:09.408Z,0.41
2023-03-11T23:25:37.411Z,0.40
2023-03-11T23:28:06.647Z,0.40
2023-03-11T23:30:34.787Z,0.41
2023-03-11T23:33:03.159Z,0.38
2023-03-11T23:35:31.584Z,0.33
2023-03-11T23:37:59.742Z,0.25
2023-03-11T23:40:27.920Z,0.21
2023-03-11T23:42:55.888Z,0.22
2023-03-11T23:45:23.854Z,0.23
2023-03-11T23:47:51.880Z,0.22
2023-03-11T23:50:19.896Z,0.18
2023-03-11T23:52:47.875Z,0.11
2023-03-11T23:55:15.896Z,0.09
2023-03-11T23:57:43.799Z,0.11
